Terminal Aerodrome Forecast
Issued by NWS Wilmington, OH

Home | Current Version | Previous Version | Text Only | Print | Product List | Glossary On
Versions: 1 2 3 4 5 6 7 8 9 10 11 12 13 14 15 16 17 18 19 20
000
FTUS41 KILN 031133
TAFILN
TAF
KILN 031133Z 0312/0412 18003KT 5SM BR SCT250
     FM031300 29006KT P6SM SCT040
     FM031900 31008KT P6SM VCTS BKN035CB
     FM040100 VRB03KT P6SM SCT250
     FM040800 VRB02KT 4SM BR VCTS SCT040CB BKN130=

USA.gov is the U.S. government's official web portal to all federal, state and local government web resources and services.